Arxan, China
Current Conditions -  °F | °C
As of 11:00 AM on Saturday 25 Oct 2014 (Local Time) from ZYHB Reporting Station
Smoke Smoke  
Wind Chill: 43°   Ceiling: Unl
Heat Index: 46°   Visibility: 2.8mi
Dew Point: 37°   Wind: 7mph
Humidity: 71%   Direction: 360°N
Pressure: 29.85"   Gusts: NA
Location:  47.17°N, 119.95°E
Report Text: ZYHB 250300Z 36003MPS 4500 FU SCT040 08/03 Q1011 NOSIG
Loading
Personal Weather Stations






























Interactive Weather Map
Tropical Storm Tracking
New forecast layout! Learn more

10-Day Weather Forecast

Advertisements
Track Severe Weather on mobile